sensor_id;sensor_type;location;lat;lon;timestamp;temperature;humidity
56123;DHT22;42426;46.104;19.656;2022-11-15T00:01:58;205.30;2252.80
56123;DHT22;42426;46.104;19.656;2022-11-15T00:04:24;205.30;2252.80
56123;DHT22;42426;46.104;19.656;2022-11-15T00:06:49;205.30;2252.80
56123;DHT22;42426;46.104;19.656;2022-11-15T00:09:15;205.30;2252.80
56123;DHT22;42426;46.104;19.656;2022-11-15T00:11:41;205.30;2252.80
56123;DHT22;42426;46.104;19.656;2022-11-15T00:14:08;205.30;2252.80
56123;DHT22;42426;46.104;19.656;2022-11-15T00:16:33;205.30;2252.80
56123;DHT22;42426;46.104;19.656;2022-11-15T00:19:03;205.30;2252.80
56123;DHT22;42426;46.104;19.656;2022-11-15T00:21:29;205.30;2252.80
56123;DHT22;42426;46.104;19.656;2022-11-15T00:23:55;205.30;2252.80
56123;DHT22;42426;46.104;19.656;2022-11-15T00:26:22;205.30;2252.80
56123;DHT22;42426;46.104;19.656;2022-11-15T00:28:47;205.30;2252.80
56123;DHT22;42426;46.104;19.656;2022-11-15T00:31:14;205.30;2252.80
56123;DHT22;42426;46.104;19.656;2022-11-15T00:33:43;205.30;2252.80
56123;DHT22;42426;46.104;19.656;2022-11-15T00:36:09;205.30;2252.80
56123;DHT22;42426;46.104;19.656;2022-11-15T00:38:38;205.40;2252.80
56123;DHT22;42426;46.104;19.656;2022-11-15T00:41:05;205.30;2252.80
56123;DHT22;42426;46.104;19.656;2022-11-15T00:43:32;205.30;2252.80
56123;DHT22;42426;46.104;19.656;2022-11-15T00:45:59;205.30;2252.80
56123;DHT22;42426;46.104;19.656;2022-11-15T00:48:25;205.30;2252.80
56123;DHT22;42426;46.104;19.656;2022-11-15T00:50:52;205.20;2252.80
56123;DHT22;42426;46.104;19.656;2022-11-15T00:53:17;205.30;2252.80
56123;DHT22;42426;46.104;19.656;2022-11-15T00:55:43;205.30;2252.80
56123;DHT22;42426;46.104;19.656;2022-11-15T00:58:10;205.30;2252.80
56123;DHT22;42426;46.104;19.656;2022-11-15T01:00:36;205.30;2252.80
56123;DHT22;42426;46.104;19.656;2022-11-15T01:03:01;205.30;2252.80
56123;DHT22;42426;46.104;19.656;2022-11-15T01:05:28;205.30;2252.80
56123;DHT22;42426;46.104;19.656;2022-11-15T01:07:58;205.30;2252.80
56123;DHT22;42426;46.104;19.656;2022-11-15T01:10:24;205.30;2252.80
56123;DHT22;42426;46.104;19.656;2022-11-15T01:12:51;205.30;2252.80
56123;DHT22;42426;46.104;19.656;2022-11-15T01:15:17;205.20;2252.80
56123;DHT22;42426;46.104;19.656;2022-11-15T01:17:42;205.20;2252.80
56123;DHT22;42426;46.104;19.656;2022-11-15T01:20:09;205.20;2252.80
56123;DHT22;42426;46.104;19.656;2022-11-15T01:22:35;205.30;2252.80
56123;DHT22;42426;46.104;19.656;2022-11-15T01:25:00;205.30;2252.80
56123;DHT22;42426;46.104;19.656;2022-11-15T01:27:26;205.30;2252.80
56123;DHT22;42426;46.104;19.656;2022-11-15T01:29:52;205.30;2252.80
56123;DHT22;42426;46.104;19.656;2022-11-15T01:32:17;205.30;2252.80
56123;DHT22;42426;46.104;19.656;2022-11-15T01:34:44;205.30;2252.80
56123;DHT22;42426;46.104;19.656;2022-11-15T01:37:10;205.30;2252.80
56123;DHT22;42426;46.104;19.656;2022-11-15T01:39:36;205.30;2252.80
56123;DHT22;42426;46.104;19.656;2022-11-15T01:42:02;205.30;2252.80
56123;DHT22;42426;46.104;19.656;2022-11-15T01:46:57;205.30;2252.80
56123;DHT22;42426;46.104;19.656;2022-11-15T01:49:23;205.30;2252.80
56123;DHT22;42426;46.104;19.656;2022-11-15T01:51:50;205.30;2252.80
56123;DHT22;42426;46.104;19.656;2022-11-15T01:54:20;205.40;2252.80
56123;DHT22;42426;46.104;19.656;2022-11-15T01:56:59;205.30;2252.80
56123;DHT22;42426;46.104;19.656;2022-11-15T01:59:27;205.30;2252.80
56123;DHT22;42426;46.104;19.656;2022-11-15T02:01:53;205.30;2252.80
56123;DHT22;42426;46.104;19.656;2022-11-15T02:04:40;205.30;2252.80
56123;DHT22;42426;46.104;19.656;2022-11-15T02:07:09;205.30;2252.80
56123;DHT22;42426;46.104;19.656;2022-11-15T02:09:37;205.30;2252.80
56123;DHT22;42426;46.104;19.656;2022-11-15T02:12:04;205.30;2252.80
56123;DHT22;42426;46.104;19.656;2022-11-15T02:14:31;205.30;2252.80
56123;DHT22;42426;46.104;19.656;2022-11-15T02:25:01;205.20;2252.80
56123;DHT22;42426;46.104;19.656;2022-11-15T02:33:12;205.20;2252.80
56123;DHT22;42426;46.104;19.656;2022-11-15T02:35:47;205.20;2252.80
56123;DHT22;42426;46.104;19.656;2022-11-15T02:38:40;205.20;2252.80
56123;DHT22;42426;46.104;19.656;2022-11-15T02:41:50;205.20;2252.80
56123;DHT22;42426;46.104;19.656;2022-11-15T02:44:22;205.20;2252.80
56123;DHT22;42426;46.104;19.656;2022-11-15T02:46:52;205.20;2252.80
56123;DHT22;42426;46.104;19.656;2022-11-15T02:49:39;205.20;2252.80
56123;DHT22;42426;46.104;19.656;2022-11-15T02:52:07;205.20;2252.80
56123;DHT22;42426;46.104;19.656;2022-11-15T02:54:34;205.20;2252.80
56123;DHT22;42426;46.104;19.656;2022-11-15T02:57:10;205.10;2252.80
56123;DHT22;42426;46.104;19.656;2022-11-15T03:05:55;205.20;2252.80
56123;DHT22;42426;46.104;19.656;2022-11-15T03:11:21;205.10;2252.80
56123;DHT22;42426;46.104;19.656;2022-11-15T03:18:47;205.10;2252.80
56123;DHT22;42426;46.104;19.656;2022-11-15T03:21:14;205.10;2252.80
56123;DHT22;42426;46.104;19.656;2022-11-15T03:23:41;205.10;2252.80
56123;DHT22;42426;46.104;19.656;2022-11-15T03:26:12;205.00;2252.80
56123;DHT22;42426;46.104;19.656;2022-11-15T03:29:03;205.00;2252.80
56123;DHT22;42426;46.104;19.656;2022-11-15T03:31:34;205.00;2252.80
56123;DHT22;42426;46.104;19.656;2022-11-15T03:37:17;204.90;2252.80
56123;DHT22;42426;46.104;19.656;2022-11-15T03:39:46;204.90;2252.80
56123;DHT22;42426;46.104;19.656;2022-11-15T03:42:23;204.90;2252.80
56123;DHT22;42426;46.104;19.656;2022-11-15T03:45:15;204.90;2252.80
56123;DHT22;42426;46.104;19.656;2022-11-15T03:47:51;204.90;2252.80
56123;DHT22;42426;46.104;19.656;2022-11-15T03:50:20;204.90;2252.80
56123;DHT22;42426;46.104;19.656;2022-11-15T03:52:48;204.90;2252.80
56123;DHT22;42426;46.104;19.656;2022-11-15T03:55:18;204.90;2252.80
56123;DHT22;42426;46.104;19.656;2022-11-15T03:57:44;204.80;2252.80
56123;DHT22;42426;46.104;19.656;2022-11-15T04:00:11;204.90;2252.80
56123;DHT22;42426;46.104;19.656;2022-11-15T04:02:37;204.80;2252.80
56123;DHT22;42426;46.104;19.656;2022-11-15T04:05:03;204.80;2252.80
56123;DHT22;42426;46.104;19.656;2022-11-15T04:07:35;204.90;2252.80
56123;DHT22;42426;46.104;19.656;2022-11-15T04:10:01;204.80;2252.80
56123;DHT22;42426;46.104;19.656;2022-11-15T04:12:38;204.80;2252.80
56123;DHT22;42426;46.104;19.656;2022-11-15T04:15:11;204.90;2252.80
56123;DHT22;42426;46.104;19.656;2022-11-15T04:17:43;204.90;2252.80
56123;DHT22;42426;46.104;19.656;2022-11-15T04:20:22;204.80;2252.80
56123;DHT22;42426;46.104;19.656;2022-11-15T04:23:10;204.80;2252.80
56123;DHT22;42426;46.104;19.656;2022-11-15T04:25:56;204.80;2252.80
56123;DHT22;42426;46.104;19.656;2022-11-15T04:28:23;204.80;2252.80
56123;DHT22;42426;46.104;19.656;2022-11-15T04:30:49;204.80;2252.80
56123;DHT22;42426;46.104;19.656;2022-11-15T04:33:15;204.80;2252.80
56123;DHT22;42426;46.104;19.656;2022-11-15T04:35:42;204.80;2252.80
56123;DHT22;42426;46.104;19.656;2022-11-15T04:38:09;204.80;2252.80
56123;DHT22;42426;46.104;19.656;2022-11-15T04:40:39;204.80;2252.80
56123;DHT22;42426;46.104;19.656;2022-11-15T04:43:04;204.80;2252.80
56123;DHT22;42426;46.104;19.656;2022-11-15T04:45:30;204.80;2252.80
56123;DHT22;42426;46.104;19.656;2022-11-15T04:47:56;204.80;2252.80
56123;DHT22;42426;46.104;19.656;2022-11-15T04:50:22;204.80;2252.80
56123;DHT22;42426;46.104;19.656;2022-11-15T04:52:53;204.80;2252.80
56123;DHT22;42426;46.104;19.656;2022-11-15T04:55:19;204.80;2252.80
56123;DHT22;42426;46.104;19.656;2022-11-15T04:57:45;204.80;2252.80
56123;DHT22;42426;46.104;19.656;2022-11-15T05:00:14;204.80;2252.80
56123;DHT22;42426;46.104;19.656;2022-11-15T05:02:40;204.80;2252.80
56123;DHT22;42426;46.104;19.656;2022-11-15T05:05:25;204.80;2252.80
56123;DHT22;42426;46.104;19.656;2022-11-15T05:07:50;204.80;2252.80
56123;DHT22;42426;46.104;19.656;2022-11-15T05:10:16;204.80;2252.80
56123;DHT22;42426;46.104;19.656;2022-11-15T05:12:42;204.80;2252.80
56123;DHT22;42426;46.104;19.656;2022-11-15T05:15:08;204.80;2252.80
56123;DHT22;42426;46.104;19.656;2022-11-15T05:17:35;204.80;2252.80
56123;DHT22;42426;46.104;19.656;2022-11-15T05:20:01;204.80;2252.80
56123;DHT22;42426;46.104;19.656;2022-11-15T05:22:27;204.90;2252.80
56123;DHT22;42426;46.104;19.656;2022-11-15T05:24:53;204.90;2252.80
56123;DHT22;42426;46.104;19.656;2022-11-15T05:27:19;204.80;2252.80
56123;DHT22;42426;46.104;19.656;2022-11-15T05:29:44;204.90;2252.80
56123;DHT22;42426;46.104;19.656;2022-11-15T05:32:12;204.90;2252.80
56123;DHT22;42426;46.104;19.656;2022-11-15T05:34:39;204.80;2252.80
56123;DHT22;42426;46.104;19.656;2022-11-15T05:37:05;204.80;2252.80
56123;DHT22;42426;46.104;19.656;2022-11-15T05:39:31;204.80;2252.80
56123;DHT22;42426;46.104;19.656;2022-11-15T05:42:34;204.90;2252.80
56123;DHT22;42426;46.104;19.656;2022-11-15T05:45:02;204.90;2252.80
56123;DHT22;42426;46.104;19.656;2022-11-15T05:47:29;204.80;2252.80
56123;DHT22;42426;46.104;19.656;2022-11-15T05:49:56;204.80;2252.80
56123;DHT22;42426;46.104;19.656;2022-11-15T05:52:27;204.90;2252.80
56123;DHT22;42426;46.104;19.656;2022-11-15T05:54:55;204.80;2252.80
56123;DHT22;42426;46.104;19.656;2022-11-15T05:57:22;204.80;2252.80
56123;DHT22;42426;46.104;19.656;2022-11-15T05:59:48;204.80;2252.80
56123;DHT22;42426;46.104;19.656;2022-11-15T06:02:13;204.80;2252.80
56123;DHT22;42426;46.104;19.656;2022-11-15T06:04:39;204.80;2252.80
56123;DHT22;42426;46.104;19.656;2022-11-15T06:07:07;204.80;2252.80
56123;DHT22;42426;46.104;19.656;2022-11-15T06:09:33;204.80;2252.80
56123;DHT22;42426;46.104;19.656;2022-11-15T06:11:59;204.80;2252.80
56123;DHT22;42426;46.104;19.656;2022-11-15T06:14:27;204.80;2252.80
56123;DHT22;42426;46.104;19.656;2022-11-15T06:16:53;204.90;2252.80
56123;DHT22;42426;46.104;19.656;2022-11-15T06:19:19;204.90;2252.80
56123;DHT22;42426;46.104;19.656;2022-11-15T06:21:44;204.90;2252.80
56123;DHT22;42426;46.104;19.656;2022-11-15T06:24:11;204.90;2252.80
56123;DHT22;42426;46.104;19.656;2022-11-15T06:26:37;205.00;2252.80
56123;DHT22;42426;46.104;19.656;2022-11-15T06:29:04;205.00;2252.80
56123;DHT22;42426;46.104;19.656;2022-11-15T06:31:30;205.60;2252.80
56123;DHT22;42426;46.104;19.656;2022-11-15T06:33:56;205.10;2252.80
56123;DHT22;42426;46.104;19.656;2022-11-15T06:36:21;205.10;2252.80
56123;DHT22;42426;46.104;19.656;2022-11-15T06:38:48;205.10;2252.80
56123;DHT22;42426;46.104;19.656;2022-11-15T06:41:14;205.10;2252.80
56123;DHT22;42426;46.104;19.656;2022-11-15T06:43:42;205.10;2252.80
56123;DHT22;42426;46.104;19.656;2022-11-15T06:46:08;205.10;2252.80
56123;DHT22;42426;46.104;19.656;2022-11-15T06:48:35;205.10;2252.80
56123;DHT22;42426;46.104;19.656;2022-11-15T06:51:03;205.20;2252.80
56123;DHT22;42426;46.104;19.656;2022-11-15T06:53:30;205.20;2252.80
56123;DHT22;42426;46.104;19.656;2022-11-15T06:56:14;205.20;2252.80
56123;DHT22;42426;46.104;19.656;2022-11-15T06:58:39;205.20;2252.80
56123;DHT22;42426;46.104;19.656;2022-11-15T07:01:09;205.20;2252.80
56123;DHT22;42426;46.104;19.656;2022-11-15T07:03:37;205.20;2252.80
56123;DHT22;42426;46.104;19.656;2022-11-15T07:06:03;205.30;2252.80
56123;DHT22;42426;46.104;19.656;2022-11-15T07:08:29;205.30;2252.80
56123;DHT22;42426;46.104;19.656;2022-11-15T07:11:01;205.30;2252.80
56123;DHT22;42426;46.104;19.656;2022-11-15T07:13:29;205.30;2252.80
56123;DHT22;42426;46.104;19.656;2022-11-15T07:16:01;205.20;2252.80
56123;DHT22;42426;46.104;19.656;2022-11-15T07:18:27;205.30;2252.80
56123;DHT22;42426;46.104;19.656;2022-11-15T07:20:53;205.30;2252.80
56123;DHT22;42426;46.104;19.656;2022-11-15T07:23:19;205.30;2252.80
56123;DHT22;42426;46.104;19.656;2022-11-15T07:25:44;205.30;2252.80
56123;DHT22;42426;46.104;19.656;2022-11-15T07:28:10;205.40;2252.80
56123;DHT22;42426;46.104;19.656;2022-11-15T07:30:39;205.40;2252.80
56123;DHT22;42426;46.104;19.656;2022-11-15T07:33:05;205.40;2252.80
56123;DHT22;42426;46.104;19.656;2022-11-15T07:35:31;205.40;2252.80
56123;DHT22;42426;46.104;19.656;2022-11-15T07:37:59;205.40;2252.80
56123;DHT22;42426;46.104;19.656;2022-11-15T07:40:26;205.40;2252.80
56123;DHT22;42426;46.104;19.656;2022-11-15T07:42:59;205.40;2252.80
56123;DHT22;42426;46.104;19.656;2022-11-15T07:45:25;205.40;2252.80
56123;DHT22;42426;46.104;19.656;2022-11-15T07:47:54;205.40;2252.80
56123;DHT22;42426;46.104;19.656;2022-11-15T07:50:24;205.40;2252.80
56123;DHT22;42426;46.104;19.656;2022-11-15T07:52:57;205.40;2252.80
56123;DHT22;42426;46.104;19.656;2022-11-15T07:55:24;205.40;2252.80
56123;DHT22;42426;46.104;19.656;2022-11-15T07:58:03;205.50;2252.80
56123;DHT22;42426;46.104;19.656;2022-11-15T08:00:29;205.60;2252.80
56123;DHT22;42426;46.104;19.656;2022-11-15T08:03:03;205.60;2252.80
56123;DHT22;42426;46.104;19.656;2022-11-15T08:05:35;205.60;2252.80
56123;DHT22;42426;46.104;19.656;2022-11-15T08:08:01;205.60;2252.80
56123;DHT22;42426;46.104;19.656;2022-11-15T08:10:31;205.60;2252.80
56123;DHT22;42426;46.104;19.656;2022-11-15T08:12:58;205.60;2252.80
56123;DHT22;42426;46.104;19.656;2022-11-15T08:15:26;205.60;2252.80
56123;DHT22;42426;46.104;19.656;2022-11-15T08:18:01;205.60;2252.80
56123;DHT22;42426;46.104;19.656;2022-11-15T08:20:29;205.70;2252.80
56123;DHT22;42426;46.104;19.656;2022-11-15T08:22:59;205.70;2252.80
56123;DHT22;42426;46.104;19.656;2022-11-15T08:25:32;205.70;2252.80
56123;DHT22;42426;46.104;19.656;2022-11-15T08:28:00;205.70;2252.80
56123;DHT22;42426;46.104;19.656;2022-11-15T08:30:35;230.40;2252.80
56123;DHT22;42426;46.104;19.656;2022-11-15T08:33:02;230.40;2252.80
56123;DHT22;42426;46.104;19.656;2022-11-15T08:35:28;230.40;2252.80
56123;DHT22;42426;46.104;19.656;2022-11-15T08:38:00;230.50;2252.80
56123;DHT22;42426;46.104;19.656;2022-11-15T08:40:26;230.50;2252.80
56123;DHT22;42426;46.104;19.656;2022-11-15T08:42:52;230.50;2252.80
56123;DHT22;42426;46.104;19.656;2022-11-15T08:45:23;230.50;2252.80
56123;DHT22;42426;46.104;19.656;2022-11-15T08:47:48;230.50;2252.80
56123;DHT22;42426;46.104;19.656;2022-11-15T08:50:15;230.50;2252.80
56123;DHT22;42426;46.104;19.656;2022-11-15T08:52:41;230.60;2252.80
56123;DHT22;42426;46.104;19.656;2022-11-15T08:55:07;230.60;2252.80
56123;DHT22;42426;46.104;19.656;2022-11-15T08:57:33;230.60;2252.80
56123;DHT22;42426;46.104;19.656;2022-11-15T08:59:58;230.60;2252.80
56123;DHT22;42426;46.104;19.656;2022-11-15T09:02:24;230.60;2252.80
56123;DHT22;42426;46.104;19.656;2022-11-15T09:04:50;230.60;2252.80
56123;DHT22;42426;46.104;19.656;2022-11-15T09:07:15;230.60;2252.80
56123;DHT22;42426;46.104;19.656;2022-11-15T09:09:41;230.70;2252.80
56123;DHT22;42426;46.104;19.656;2022-11-15T09:12:07;230.70;2252.80
56123;DHT22;42426;46.104;19.656;2022-11-15T09:14:33;230.70;2252.80
56123;DHT22;42426;46.104;19.656;2022-11-15T09:16:59;230.70;2252.80
56123;DHT22;42426;46.104;19.656;2022-11-15T09:19:26;230.70;2252.80
56123;DHT22;42426;46.104;19.656;2022-11-15T09:21:52;230.70;2252.80
56123;DHT22;42426;46.104;19.656;2022-11-15T09:24:18;231.00;2252.80
56123;DHT22;42426;46.104;19.656;2022-11-15T09:26:44;230.90;2252.80
56123;DHT22;42426;46.104;19.656;2022-11-15T09:29:10;230.90;2252.80
56123;DHT22;42426;46.104;19.656;2022-11-15T09:31:36;230.90;2252.80
56123;DHT22;42426;46.104;19.656;2022-11-15T09:34:02;230.90;2252.80
56123;DHT22;42426;46.104;19.656;2022-11-15T09:36:32;230.90;2252.80
56123;DHT22;42426;46.104;19.656;2022-11-15T09:38:58;230.90;2252.80
56123;DHT22;42426;46.104;19.656;2022-11-15T09:44:44;231.00;2252.80
56123;DHT22;42426;46.104;19.656;2022-11-15T09:50:10;231.00;2252.80
56123;DHT22;42426;46.104;19.656;2022-11-15T09:52:41;231.10;2252.80
56123;DHT22;42426;46.104;19.656;2022-11-15T09:55:10;231.10;2252.80
56123;DHT22;42426;46.104;19.656;2022-11-15T09:57:48;231.20;2252.80
56123;DHT22;42426;46.104;19.656;2022-11-15T10:05:22;256.00;2252.80
56123;DHT22;42426;46.104;19.656;2022-11-15T10:10:38;256.20;2252.80
56123;DHT22;42426;46.104;19.656;2022-11-15T10:13:06;256.20;2252.80
56123;DHT22;42426;46.104;19.656;2022-11-15T10:15:35;256.20;2252.80
56123;DHT22;42426;46.104;19.656;2022-11-15T10:21:32;256.30;2252.80
56123;DHT22;42426;46.104;19.656;2022-11-15T10:24:05;256.40;2252.80
56123;DHT22;42426;46.104;19.656;2022-11-15T10:26:31;256.30;2252.80
56123;DHT22;42426;46.104;19.656;2022-11-15T10:28:58;256.40;2252.80
56123;DHT22;42426;46.104;19.656;2022-11-15T10:31:26;256.50;2252.80
56123;DHT22;42426;46.104;19.656;2022-11-15T10:34:21;256.50;2252.80
56123;DHT22;42426;46.104;19.656;2022-11-15T10:36:55;256.60;2252.80
56123;DHT22;42426;46.104;19.656;2022-11-15T10:39:24;256.60;2252.80
56123;DHT22;42426;46.104;19.656;2022-11-15T10:41:50;256.60;2252.80
56123;DHT22;42426;46.104;19.656;2022-11-15T10:44:27;256.70;2252.80
56123;DHT22;42426;46.104;19.656;2022-11-15T10:49:28;256.80;2252.80
56123;DHT22;42426;46.104;19.656;2022-11-15T10:52:00;256.80;2252.80
56123;DHT22;42426;46.104;19.656;2022-11-15T10:56:58;256.90;2252.80
56123;DHT22;42426;46.104;19.656;2022-11-15T10:59:32;281.60;2278.40
56123;DHT22;42426;46.104;19.656;2022-11-15T11:01:58;281.60;2278.40
56123;DHT22;42426;46.104;19.656;2022-11-15T11:04:25;281.60;2278.40
56123;DHT22;42426;46.104;19.656;2022-11-15T11:06:59;281.60;2278.40
56123;DHT22;42426;46.104;19.656;2022-11-15T11:50:28;282.20;2278.40
56123;DHT22;42426;46.104;19.656;2022-11-15T11:53:19;282.20;2278.40
56123;DHT22;42426;46.104;19.656;2022-11-15T11:55:53;282.40;2278.40
56123;DHT22;42426;46.104;19.656;2022-11-15T12:00:57;307.20;2304.00
56123;DHT22;42426;46.104;19.656;2022-11-15T12:03:38;307.20;2304.00
56123;DHT22;42426;46.104;19.656;2022-11-15T12:13:04;307.20;2304.00
56123;DHT22;42426;46.104;19.656;2022-11-15T12:18:03;307.20;2304.00
56123;DHT22;42426;46.104;19.656;2022-11-15T12:20:34;307.20;2304.00
56123;DHT22;42426;46.104;19.656;2022-11-15T12:23:58;307.20;2304.00
56123;DHT22;42426;46.104;19.656;2022-11-15T12:26:11;307.20;2304.00
56123;DHT22;42426;46.104;19.656;2022-11-15T12:29:21;307.30;2304.00
56123;DHT22;42426;46.104;19.656;2022-11-15T12:31:52;307.40;2304.00
56123;DHT22;42426;46.104;19.656;2022-11-15T12:36:48;307.30;2304.00
56123;DHT22;42426;46.104;19.656;2022-11-15T12:59:59;307.60;2304.00
56123;DHT22;42426;46.104;19.656;2022-11-15T13:02:44;307.60;2304.00
56123;DHT22;42426;46.104;19.656;2022-11-15T13:17:49;307.60;2304.00
56123;DHT22;42426;46.104;19.656;2022-11-15T13:30:51;307.80;2304.00
56123;DHT22;42426;46.104;19.656;2022-11-15T13:33:24;307.80;2304.00
56123;DHT22;42426;46.104;19.656;2022-11-15T13:36:07;307.80;2304.00
56123;DHT22;42426;46.104;19.656;2022-11-15T13:38:36;307.80;2304.00
56123;DHT22;42426;46.104;19.656;2022-11-15T13:41:26;307.80;2304.00
56123;DHT22;42426;46.104;19.656;2022-11-15T13:43:54;307.80;2304.00
56123;DHT22;42426;46.104;19.656;2022-11-15T13:46:23;307.80;2304.00
56123;DHT22;42426;46.104;19.656;2022-11-15T13:49:12;307.80;2304.00
56123;DHT22;42426;46.104;19.656;2022-11-15T13:51:52;307.80;2304.00
56123;DHT22;42426;46.104;19.656;2022-11-15T13:57:21;307.70;2304.00
56123;DHT22;42426;46.104;19.656;2022-11-15T14:00:01;307.70;2304.00
56123;DHT22;42426;46.104;19.656;2022-11-15T14:02:32;307.70;2304.00
56123;DHT22;42426;46.104;19.656;2022-11-15T14:07:28;307.70;2304.00
56123;DHT22;42426;46.104;19.656;2022-11-15T14:09:54;307.70;2304.00
56123;DHT22;42426;46.104;19.656;2022-11-15T14:15:29;307.60;2304.00
56123;DHT22;42426;46.104;19.656;2022-11-15T14:17:56;307.60;2304.00
56123;DHT22;42426;46.104;19.656;2022-11-15T14:23:03;307.50;2304.00
56123;DHT22;42426;46.104;19.656;2022-11-15T14:25:34;307.50;2304.00
56123;DHT22;42426;46.104;19.656;2022-11-15T14:28:16;307.50;2304.00
56123;DHT22;42426;46.104;19.656;2022-11-15T14:30:55;307.50;2304.00
56123;DHT22;42426;46.104;19.656;2022-11-15T14:33:33;307.50;2304.00
56123;DHT22;42426;46.104;19.656;2022-11-15T14:38:36;307.40;2304.00
56123;DHT22;42426;46.104;19.656;2022-11-15T14:41:02;307.40;2304.00
56123;DHT22;42426;46.104;19.656;2022-11-15T14:43:28;307.40;2304.00
56123;DHT22;42426;46.104;19.656;2022-11-15T14:46:01;307.40;2304.00
56123;DHT22;42426;46.104;19.656;2022-11-15T14:48:30;307.40;2304.00
56123;DHT22;42426;46.104;19.656;2022-11-15T14:50:56;307.30;2304.00
56123;DHT22;42426;46.104;19.656;2022-11-15T14:53:22;307.30;2304.00
56123;DHT22;42426;46.104;19.656;2022-11-15T14:55:49;307.30;2304.00
56123;DHT22;42426;46.104;19.656;2022-11-15T14:58:14;307.30;2304.00
56123;DHT22;42426;46.104;19.656;2022-11-15T15:00:41;307.30;2304.00
56123;DHT22;42426;46.104;19.656;2022-11-15T15:03:07;307.30;2304.00
56123;DHT22;42426;46.104;19.656;2022-11-15T15:05:36;307.20;2304.00
56123;DHT22;42426;46.104;19.656;2022-11-15T15:08:03;307.20;2304.00
56123;DHT22;42426;46.104;19.656;2022-11-15T15:10:42;307.20;2304.00
56123;DHT22;42426;46.104;19.656;2022-11-15T15:13:20;307.20;2304.00
56123;DHT22;42426;46.104;19.656;2022-11-15T15:15:47;307.20;2304.00
56123;DHT22;42426;46.104;19.656;2022-11-15T15:18:16;307.20;2304.00
56123;DHT22;42426;46.104;19.656;2022-11-15T15:20:43;307.20;2304.00
56123;DHT22;42426;46.104;19.656;2022-11-15T15:23:16;307.20;2304.00
56123;DHT22;42426;46.104;19.656;2022-11-15T15:25:47;282.50;2278.40
56123;DHT22;42426;46.104;19.656;2022-11-15T15:28:14;282.50;2278.40
56123;DHT22;42426;46.104;19.656;2022-11-15T15:30:40;282.50;2278.40
56123;DHT22;42426;46.104;19.656;2022-11-15T15:33:06;282.50;2278.40
56123;DHT22;42426;46.104;19.656;2022-11-15T15:35:33;282.50;2278.40
56123;DHT22;42426;46.104;19.656;2022-11-15T15:38:00;282.50;2278.40
56123;DHT22;42426;46.104;19.656;2022-11-15T15:40:28;282.30;2278.40
56123;DHT22;42426;46.104;19.656;2022-11-15T15:42:54;282.40;2278.40
56123;DHT22;42426;46.104;19.656;2022-11-15T15:45:20;282.40;2278.40
56123;DHT22;42426;46.104;19.656;2022-11-15T15:47:47;282.40;2278.40
56123;DHT22;42426;46.104;19.656;2022-11-15T15:50:35;282.30;2278.40
56123;DHT22;42426;46.104;19.656;2022-11-15T15:53:02;282.40;2278.40
56123;DHT22;42426;46.104;19.656;2022-11-15T15:55:28;282.30;2278.40
56123;DHT22;42426;46.104;19.656;2022-11-15T15:57:55;282.30;2278.40
56123;DHT22;42426;46.104;19.656;2022-11-15T16:00:22;282.30;2278.40
56123;DHT22;42426;46.104;19.656;2022-11-15T16:02:49;282.30;2278.40
56123;DHT22;42426;46.104;19.656;2022-11-15T16:05:16;282.30;2278.40
56123;DHT22;42426;46.104;19.656;2022-11-15T16:07:43;282.30;2278.40
56123;DHT22;42426;46.104;19.656;2022-11-15T16:10:29;282.30;2278.40
56123;DHT22;42426;46.104;19.656;2022-11-15T16:12:56;282.30;2278.40
56123;DHT22;42426;46.104;19.656;2022-11-15T16:15:24;282.30;2278.40
56123;DHT22;42426;46.104;19.656;2022-11-15T16:17:53;282.20;2278.40
56123;DHT22;42426;46.104;19.656;2022-11-15T16:23:05;282.20;2278.40
56123;DHT22;42426;46.104;19.656;2022-11-15T16:25:39;282.20;2278.40
56123;DHT22;42426;46.104;19.656;2022-11-15T16:28:07;282.20;2278.40
56123;DHT22;42426;46.104;19.656;2022-11-15T16:30:37;282.20;2278.40
56123;DHT22;42426;46.104;19.656;2022-11-15T16:33:02;282.10;2278.40
56123;DHT22;42426;46.104;19.656;2022-11-15T16:35:28;282.10;2278.40
56123;DHT22;42426;46.104;19.656;2022-11-15T16:37:54;282.10;2278.40
56123;DHT22;42426;46.104;19.656;2022-11-15T16:40:28;282.10;2278.40
56123;DHT22;42426;46.104;19.656;2022-11-15T16:42:56;282.10;2278.40
56123;DHT22;42426;46.104;19.656;2022-11-15T16:45:23;282.10;2278.40
56123;DHT22;42426;46.104;19.656;2022-11-15T16:47:48;282.10;2278.40
56123;DHT22;42426;46.104;19.656;2022-11-15T16:50:26;282.10;2278.40
56123;DHT22;42426;46.104;19.656;2022-11-15T16:52:56;282.10;2278.40
56123;DHT22;42426;46.104;19.656;2022-11-15T16:55:24;282.10;2278.40
56123;DHT22;42426;46.104;19.656;2022-11-15T17:01:18;282.10;2278.40
56123;DHT22;42426;46.104;19.656;2022-11-15T17:07:07;282.00;2278.40
56123;DHT22;42426;46.104;19.656;2022-11-15T17:12:55;282.00;2278.40
56123;DHT22;42426;46.104;19.656;2022-11-15T17:18:43;281.90;2278.40
56123;DHT22;42426;46.104;19.656;2022-11-15T17:28:34;281.90;2278.40
56123;DHT22;42426;46.104;19.656;2022-11-15T17:34:22;281.80;2278.40
56123;DHT22;42426;46.104;19.656;2022-11-15T17:40:10;281.80;2278.40
56123;DHT22;42426;46.104;19.656;2022-11-15T17:45:59;281.80;2278.40
56123;DHT22;42426;46.104;19.656;2022-11-15T17:51:47;281.80;2278.40
56123;DHT22;42426;46.104;19.656;2022-11-15T17:57:34;281.70;2278.40
56123;DHT22;42426;46.104;19.656;2022-11-15T18:03:21;281.70;2278.40
56123;DHT22;42426;46.104;19.656;2022-11-15T18:09:09;281.60;2278.40
56123;DHT22;42426;46.104;19.656;2022-11-15T18:14:57;281.70;2278.40
56123;DHT22;42426;46.104;19.656;2022-11-15T18:20:46;281.70;2278.40
56123;DHT22;42426;46.104;19.656;2022-11-15T18:30:27;281.70;2278.40
56123;DHT22;42426;46.104;19.656;2022-11-15T18:36:20;281.70;2278.40
56123;DHT22;42426;46.104;19.656;2022-11-15T18:42:08;281.70;2278.40
56123;DHT22;42426;46.104;19.656;2022-11-15T18:44:33;281.60;2278.40
56123;DHT22;42426;46.104;19.656;2022-11-15T18:46:59;281.60;2278.40